sensor_id;sensor_type;location;lat;lon;timestamp;temperature;humidity
15115;DHT22;7658;51.456;7.622;2023-04-15T00:02:16;4.30;99.90
15115;DHT22;7658;51.456;7.622;2023-04-15T00:04:44;4.30;99.90
15115;DHT22;7658;51.456;7.622;2023-04-15T00:07:10;4.40;99.90
15115;DHT22;7658;51.456;7.622;2023-04-15T00:09:36;4.50;99.90
15115;DHT22;7658;51.456;7.622;2023-04-15T00:12:01;4.60;99.90
15115;DHT22;7658;51.456;7.622;2023-04-15T00:14:28;4.60;99.90
15115;DHT22;7658;51.456;7.622;2023-04-15T00:16:53;4.60;99.90
15115;DHT22;7658;51.456;7.622;2023-04-15T00:19:22;4.40;99.90
15115;DHT22;7658;51.456;7.622;2023-04-15T00:21:48;4.30;99.90
15115;DHT22;7658;51.456;7.622;2023-04-15T00:24:14;4.40;99.90
15115;DHT22;7658;51.456;7.622;2023-04-15T00:26:40;4.30;99.90
15115;DHT22;7658;51.456;7.622;2023-04-15T00:29:06;4.10;99.90
15115;DHT22;7658;51.456;7.622;2023-04-15T00:31:31;4.00;99.90
15115;DHT22;7658;51.456;7.622;2023-04-15T00:33:57;3.80;99.90
15115;DHT22;7658;51.456;7.622;2023-04-15T00:36:24;3.80;99.90
15115;DHT22;7658;51.456;7.622;2023-04-15T00:38:50;3.80;99.90
15115;DHT22;7658;51.456;7.622;2023-04-15T00:41:17;3.70;99.90
15115;DHT22;7658;51.456;7.622;2023-04-15T00:43:43;3.70;99.90
15115;DHT22;7658;51.456;7.622;2023-04-15T00:46:12;3.80;99.90
15115;DHT22;7658;51.456;7.622;2023-04-15T00:48:38;3.80;99.90
15115;DHT22;7658;51.456;7.622;2023-04-15T00:51:05;3.80;99.90
15115;DHT22;7658;51.456;7.622;2023-04-15T00:53:32;3.80;99.90
15115;DHT22;7658;51.456;7.622;2023-04-15T00:55:57;3.70;99.90
15115;DHT22;7658;51.456;7.622;2023-04-15T00:58:23;3.80;99.90
15115;DHT22;7658;51.456;7.622;2023-04-15T01:00:50;3.70;99.90
15115;DHT22;7658;51.456;7.622;2023-04-15T01:03:19;3.80;99.90
15115;DHT22;7658;51.456;7.622;2023-04-15T01:05:45;3.90;99.90
15115;DHT22;7658;51.456;7.622;2023-04-15T01:08:11;4.00;99.90
15115;DHT22;7658;51.456;7.622;2023-04-15T01:10:37;4.10;99.90
15115;DHT22;7658;51.456;7.622;2023-04-15T01:13:04;4.20;99.90
15115;DHT22;7658;51.456;7.622;2023-04-15T01:15:30;4.00;99.90
15115;DHT22;7658;51.456;7.622;2023-04-15T01:17:59;4.00;99.90
15115;DHT22;7658;51.456;7.622;2023-04-15T01:20:28;4.10;99.90
15115;DHT22;7658;51.456;7.622;2023-04-15T01:22:54;4.00;99.90
15115;DHT22;7658;51.456;7.622;2023-04-15T01:25:33;3.80;99.90
15115;DHT22;7658;51.456;7.622;2023-04-15T01:28:00;3.80;99.90
15115;DHT22;7658;51.456;7.622;2023-04-15T01:30:26;3.90;99.90
15115;DHT22;7658;51.456;7.622;2023-04-15T01:32:52;4.00;99.90
15115;DHT22;7658;51.456;7.622;2023-04-15T01:35:19;3.90;99.90
15115;DHT22;7658;51.456;7.622;2023-04-15T01:37:45;3.70;99.90
15115;DHT22;7658;51.456;7.622;2023-04-15T01:40:11;3.80;99.90
15115;DHT22;7658;51.456;7.622;2023-04-15T01:42:38;3.90;99.90
15115;DHT22;7658;51.456;7.622;2023-04-15T01:45:04;3.90;99.90
15115;DHT22;7658;51.456;7.622;2023-04-15T01:47:30;3.90;99.90
15115;DHT22;7658;51.456;7.622;2023-04-15T01:49:56;3.90;99.90
15115;DHT22;7658;51.456;7.622;2023-04-15T01:52:22;3.80;99.90
15115;DHT22;7658;51.456;7.622;2023-04-15T01:54:48;3.70;99.90
15115;DHT22;7658;51.456;7.622;2023-04-15T01:57:13;3.70;99.90
15115;DHT22;7658;51.456;7.622;2023-04-15T01:59:39;3.70;99.90
15115;DHT22;7658;51.456;7.622;2023-04-15T02:02:05;3.50;99.90
15115;DHT22;7658;51.456;7.622;2023-04-15T02:04:31;3.40;99.90
15115;DHT22;7658;51.456;7.622;2023-04-15T02:06:57;3.30;99.90
15115;DHT22;7658;51.456;7.622;2023-04-15T02:09:22;3.30;99.90
15115;DHT22;7658;51.456;7.622;2023-04-15T02:11:49;3.40;99.90
15115;DHT22;7658;51.456;7.622;2023-04-15T02:14:15;3.30;99.90
15115;DHT22;7658;51.456;7.622;2023-04-15T02:16:40;3.20;99.90
15115;DHT22;7658;51.456;7.622;2023-04-15T02:19:06;3.00;99.90
15115;DHT22;7658;51.456;7.622;2023-04-15T02:21:32;2.90;99.90
15115;DHT22;7658;51.456;7.622;2023-04-15T02:23:59;2.80;99.90
15115;DHT22;7658;51.456;7.622;2023-04-15T02:26:26;2.80;99.90
15115;DHT22;7658;51.456;7.622;2023-04-15T02:28:52;2.80;99.90
15115;DHT22;7658;51.456;7.622;2023-04-15T02:31:18;2.80;99.90
15115;DHT22;7658;51.456;7.622;2023-04-15T02:33:44;2.70;99.90
15115;DHT22;7658;51.456;7.622;2023-04-15T02:36:10;2.70;99.90
15115;DHT22;7658;51.456;7.622;2023-04-15T02:38:37;2.70;99.90
15115;DHT22;7658;51.456;7.622;2023-04-15T02:41:05;2.60;99.90
15115;DHT22;7658;51.456;7.622;2023-04-15T02:43:30;2.80;99.90
15115;DHT22;7658;51.456;7.622;2023-04-15T02:45:56;3.00;99.90
15115;DHT22;7658;51.456;7.622;2023-04-15T02:48:22;2.90;99.90
15115;DHT22;7658;51.456;7.622;2023-04-15T02:50:47;2.80;99.90
15115;DHT22;7658;51.456;7.622;2023-04-15T02:53:13;2.90;99.90
15115;DHT22;7658;51.456;7.622;2023-04-15T02:55:39;3.00;99.90
15115;DHT22;7658;51.456;7.622;2023-04-15T02:58:05;3.00;99.90
15115;DHT22;7658;51.456;7.622;2023-04-15T03:00:32;3.10;99.90
15115;DHT22;7658;51.456;7.622;2023-04-15T03:03:00;3.10;99.90
15115;DHT22;7658;51.456;7.622;2023-04-15T03:05:26;3.00;99.90
15115;DHT22;7658;51.456;7.622;2023-04-15T03:07:52;2.90;99.90
15115;DHT22;7658;51.456;7.622;2023-04-15T03:10:18;2.80;99.90
15115;DHT22;7658;51.456;7.622;2023-04-15T03:12:44;2.80;99.90
15115;DHT22;7658;51.456;7.622;2023-04-15T03:15:10;2.80;99.90
15115;DHT22;7658;51.456;7.622;2023-04-15T03:17:36;2.70;99.90
15115;DHT22;7658;51.456;7.622;2023-04-15T03:20:03;2.70;99.90
15115;DHT22;7658;51.456;7.622;2023-04-15T03:22:30;2.70;99.90
15115;DHT22;7658;51.456;7.622;2023-04-15T03:24:56;2.80;99.90
15115;DHT22;7658;51.456;7.622;2023-04-15T03:27:22;2.80;99.90
15115;DHT22;7658;51.456;7.622;2023-04-15T03:29:48;2.70;99.90
15115;DHT22;7658;51.456;7.622;2023-04-15T03:32:14;2.60;99.90
15115;DHT22;7658;51.456;7.622;2023-04-15T03:34:40;2.50;99.90
15115;DHT22;7658;51.456;7.622;2023-04-15T03:37:06;2.40;99.90
15115;DHT22;7658;51.456;7.622;2023-04-15T03:39:33;2.40;99.90
15115;DHT22;7658;51.456;7.622;2023-04-15T03:41:59;2.40;99.90
15115;DHT22;7658;51.456;7.622;2023-04-15T03:44:26;2.30;99.90
15115;DHT22;7658;51.456;7.622;2023-04-15T03:46:52;2.30;99.90
15115;DHT22;7658;51.456;7.622;2023-04-15T03:49:18;2.20;99.90
15115;DHT22;7658;51.456;7.622;2023-04-15T03:51:44;2.20;99.90
15115;DHT22;7658;51.456;7.622;2023-04-15T03:54:10;2.10;99.90
15115;DHT22;7658;51.456;7.622;2023-04-15T03:56:37;2.10;99.90
15115;DHT22;7658;51.456;7.622;2023-04-15T03:59:03;2.20;99.90
15115;DHT22;7658;51.456;7.622;2023-04-15T04:01:28;2.30;99.90
15115;DHT22;7658;51.456;7.622;2023-04-15T04:03:54;2.40;99.90
15115;DHT22;7658;51.456;7.622;2023-04-15T04:06:20;2.50;99.90
15115;DHT22;7658;51.456;7.622;2023-04-15T04:08:46;2.50;99.90
15115;DHT22;7658;51.456;7.622;2023-04-15T04:11:12;2.60;99.90
15115;DHT22;7658;51.456;7.622;2023-04-15T04:13:37;2.60;99.90
15115;DHT22;7658;51.456;7.622;2023-04-15T04:16:03;2.60;99.90
15115;DHT22;7658;51.456;7.622;2023-04-15T04:18:31;2.70;99.90
15115;DHT22;7658;51.456;7.622;2023-04-15T04:20:56;2.60;99.90
15115;DHT22;7658;51.456;7.622;2023-04-15T04:23:22;2.60;99.90
15115;DHT22;7658;51.456;7.622;2023-04-15T04:25:48;2.60;99.90
15115;DHT22;7658;51.456;7.622;2023-04-15T04:28:14;2.70;99.90
15115;DHT22;7658;51.456;7.622;2023-04-15T04:30:39;2.70;99.90
15115;DHT22;7658;51.456;7.622;2023-04-15T04:33:06;2.70;99.90
15115;DHT22;7658;51.456;7.622;2023-04-15T04:35:32;2.70;99.90
15115;DHT22;7658;51.456;7.622;2023-04-15T04:38:00;2.80;99.90
15115;DHT22;7658;51.456;7.622;2023-04-15T04:40:26;2.70;99.90
15115;DHT22;7658;51.456;7.622;2023-04-15T04:42:52;2.70;99.90
15115;DHT22;7658;51.456;7.622;2023-04-15T04:45:19;2.60;99.90
15115;DHT22;7658;51.456;7.622;2023-04-15T04:47:44;2.50;99.90
15115;DHT22;7658;51.456;7.622;2023-04-15T04:50:11;2.40;99.90
15115;DHT22;7658;51.456;7.622;2023-04-15T04:52:37;2.50;99.90
15115;DHT22;7658;51.456;7.622;2023-04-15T04:55:03;2.50;99.90
15115;DHT22;7658;51.456;7.622;2023-04-15T04:57:29;2.60;99.90
15115;DHT22;7658;51.456;7.622;2023-04-15T04:59:54;2.60;99.90
15115;DHT22;7658;51.456;7.622;2023-04-15T05:02:20;2.60;99.90
15115;DHT22;7658;51.456;7.622;2023-04-15T05:04:46;2.50;99.90
15115;DHT22;7658;51.456;7.622;2023-04-15T05:07:12;2.40;99.90
15115;DHT22;7658;51.456;7.622;2023-04-15T05:09:37;2.30;99.90
15115;DHT22;7658;51.456;7.622;2023-04-15T05:12:03;2.20;99.90
15115;DHT22;7658;51.456;7.622;2023-04-15T05:14:29;2.20;99.90
15115;DHT22;7658;51.456;7.622;2023-04-15T05:16:56;2.20;99.90
15115;DHT22;7658;51.456;7.622;2023-04-15T05:19:22;2.20;99.90
15115;DHT22;7658;51.456;7.622;2023-04-15T05:21:48;2.10;99.90
15115;DHT22;7658;51.456;7.622;2023-04-15T05:24:13;2.10;99.90
15115;DHT22;7658;51.456;7.622;2023-04-15T05:26:39;2.10;99.90
15115;DHT22;7658;51.456;7.622;2023-04-15T05:29:05;2.20;99.90
15115;DHT22;7658;51.456;7.622;2023-04-15T05:31:31;2.20;99.90
15115;DHT22;7658;51.456;7.622;2023-04-15T05:33:57;2.20;99.90
15115;DHT22;7658;51.456;7.622;2023-04-15T05:36:23;2.30;99.90
15115;DHT22;7658;51.456;7.622;2023-04-15T05:38:48;2.40;99.90
15115;DHT22;7658;51.456;7.622;2023-04-15T05:41:14;2.50;99.90
15115;DHT22;7658;51.456;7.622;2023-04-15T05:43:41;2.50;99.90
15115;DHT22;7658;51.456;7.622;2023-04-15T05:46:06;2.40;99.90
15115;DHT22;7658;51.456;7.622;2023-04-15T05:48:33;2.50;99.90
15115;DHT22;7658;51.456;7.622;2023-04-15T05:50:59;2.60;99.90
15115;DHT22;7658;51.456;7.622;2023-04-15T05:53:25;2.60;99.90
15115;DHT22;7658;51.456;7.622;2023-04-15T05:55:51;2.70;99.90
15115;DHT22;7658;51.456;7.622;2023-04-15T05:58:16;2.80;99.90
15115;DHT22;7658;51.456;7.622;2023-04-15T06:00:42;2.90;99.90
15115;DHT22;7658;51.456;7.622;2023-04-15T06:03:09;2.90;99.90
15115;DHT22;7658;51.456;7.622;2023-04-15T06:05:36;3.00;99.90
15115;DHT22;7658;51.456;7.622;2023-04-15T06:08:02;3.10;99.90
15115;DHT22;7658;51.456;7.622;2023-04-15T06:10:28;3.20;99.90
15115;DHT22;7658;51.456;7.622;2023-04-15T06:12:53;3.30;99.90
15115;DHT22;7658;51.456;7.622;2023-04-15T06:15:19;3.40;99.90
15115;DHT22;7658;51.456;7.622;2023-04-15T06:17:45;3.50;99.90
15115;DHT22;7658;51.456;7.622;2023-04-15T06:20:11;3.50;99.90
15115;DHT22;7658;51.456;7.622;2023-04-15T06:22:37;3.60;99.90
15115;DHT22;7658;51.456;7.622;2023-04-15T06:25:06;3.60;99.90
15115;DHT22;7658;51.456;7.622;2023-04-15T06:27:35;3.60;99.90
15115;DHT22;7658;51.456;7.622;2023-04-15T06:30:01;3.70;99.90
15115;DHT22;7658;51.456;7.622;2023-04-15T06:32:26;3.80;99.90
15115;DHT22;7658;51.456;7.622;2023-04-15T06:34:52;3.80;99.90
15115;DHT22;7658;51.456;7.622;2023-04-15T06:37:18;3.80;99.90
15115;DHT22;7658;51.456;7.622;2023-04-15T06:39:43;3.70;99.90
15115;DHT22;7658;51.456;7.622;2023-04-15T06:42:10;3.80;99.90
15115;DHT22;7658;51.456;7.622;2023-04-15T06:44:36;3.80;99.90
15115;DHT22;7658;51.456;7.622;2023-04-15T06:47:02;4.00;99.90
15115;DHT22;7658;51.456;7.622;2023-04-15T06:49:28;4.10;99.90
15115;DHT22;7658;51.456;7.622;2023-04-15T06:51:54;4.10;99.90
15115;DHT22;7658;51.456;7.622;2023-04-15T06:54:21;4.00;99.90
15115;DHT22;7658;51.456;7.622;2023-04-15T06:56:47;4.10;99.90
15115;DHT22;7658;51.456;7.622;2023-04-15T06:59:12;4.10;99.90
15115;DHT22;7658;51.456;7.622;2023-04-15T07:01:40;4.30;99.90
15115;DHT22;7658;51.456;7.622;2023-04-15T07:04:06;4.50;99.90
15115;DHT22;7658;51.456;7.622;2023-04-15T07:06:33;4.60;99.90
15115;DHT22;7658;51.456;7.622;2023-04-15T07:09:00;4.70;99.90
15115;DHT22;7658;51.456;7.622;2023-04-15T07:11:26;4.70;99.90
15115;DHT22;7658;51.456;7.622;2023-04-15T07:13:52;4.80;99.90
15115;DHT22;7658;51.456;7.622;2023-04-15T07:16:17;4.90;99.90
15115;DHT22;7658;51.456;7.622;2023-04-15T07:18:43;5.00;99.90
15115;DHT22;7658;51.456;7.622;2023-04-15T07:21:09;5.10;99.90
15115;DHT22;7658;51.456;7.622;2023-04-15T07:23:36;5.20;99.90
15115;DHT22;7658;51.456;7.622;2023-04-15T07:26:02;5.30;99.90
15115;DHT22;7658;51.456;7.622;2023-04-15T07:28:28;5.30;99.90
15115;DHT22;7658;51.456;7.622;2023-04-15T07:30:54;5.30;99.90
15115;DHT22;7658;51.456;7.622;2023-04-15T07:33:21;5.50;99.90
15115;DHT22;7658;51.456;7.622;2023-04-15T07:35:47;5.40;99.90
15115;DHT22;7658;51.456;7.622;2023-04-15T07:38:13;5.50;99.90
15115;DHT22;7658;51.456;7.622;2023-04-15T07:40:39;5.70;99.90
15115;DHT22;7658;51.456;7.622;2023-04-15T07:43:05;5.80;99.90
15115;DHT22;7658;51.456;7.622;2023-04-15T07:45:33;6.00;99.90
15115;DHT22;7658;51.456;7.622;2023-04-15T07:48:00;6.20;99.90
15115;DHT22;7658;51.456;7.622;2023-04-15T07:50:27;6.40;99.90
15115;DHT22;7658;51.456;7.622;2023-04-15T07:52:53;6.50;99.90
15115;DHT22;7658;51.456;7.622;2023-04-15T07:55:18;6.70;99.90
15115;DHT22;7658;51.456;7.622;2023-04-15T07:57:47;6.80;99.90
15115;DHT22;7658;51.456;7.622;2023-04-15T08:00:14;7.10;99.90
15115;DHT22;7658;51.456;7.622;2023-04-15T08:02:41;7.30;99.90
15115;DHT22;7658;51.456;7.622;2023-04-15T08:05:08;7.30;99.90
15115;DHT22;7658;51.456;7.622;2023-04-15T08:07:36;7.70;99.90
15115;DHT22;7658;51.456;7.622;2023-04-15T08:10:03;7.90;99.90
15115;DHT22;7658;51.456;7.622;2023-04-15T08:12:29;8.10;99.90
15115;DHT22;7658;51.456;7.622;2023-04-15T08:14:55;8.20;99.90
15115;DHT22;7658;51.456;7.622;2023-04-15T08:17:22;8.40;99.90
15115;DHT22;7658;51.456;7.622;2023-04-15T08:19:59;8.70;99.90
15115;DHT22;7658;51.456;7.622;2023-04-15T08:22:25;8.80;99.90
15115;DHT22;7658;51.456;7.622;2023-04-15T08:24:52;8.90;99.90
15115;DHT22;7658;51.456;7.622;2023-04-15T08:27:17;9.00;99.90
15115;DHT22;7658;51.456;7.622;2023-04-15T08:29:43;9.00;99.90
15115;DHT22;7658;51.456;7.622;2023-04-15T08:32:10;9.00;99.90
15115;DHT22;7658;51.456;7.622;2023-04-15T08:34:35;8.90;99.90
15115;DHT22;7658;51.456;7.622;2023-04-15T08:37:01;8.90;99.90
15115;DHT22;7658;51.456;7.622;2023-04-15T08:39:27;8.90;99.90
15115;DHT22;7658;51.456;7.622;2023-04-15T08:42:02;8.90;99.90
15115;DHT22;7658;51.456;7.622;2023-04-15T08:44:32;9.00;99.90
15115;DHT22;7658;51.456;7.622;2023-04-15T08:47:00;9.10;99.90
15115;DHT22;7658;51.456;7.622;2023-04-15T08:49:28;9.10;99.90
15115;DHT22;7658;51.456;7.622;2023-04-15T08:51:56;9.10;99.90
15115;DHT22;7658;51.456;7.622;2023-04-15T08:54:22;9.10;99.90
15115;DHT22;7658;51.456;7.622;2023-04-15T08:56:49;9.10;99.90
15115;DHT22;7658;51.456;7.622;2023-04-15T08:59:14;9.20;99.90
15115;DHT22;7658;51.456;7.622;2023-04-15T09:01:43;9.30;99.90
15115;DHT22;7658;51.456;7.622;2023-04-15T09:04:10;9.30;99.90
15115;DHT22;7658;51.456;7.622;2023-04-15T09:06:39;9.40;99.90
15115;DHT22;7658;51.456;7.622;2023-04-15T09:09:05;9.50;99.90
15115;DHT22;7658;51.456;7.622;2023-04-15T09:11:31;9.50;99.90
15115;DHT22;7658;51.456;7.622;2023-04-15T09:13:57;9.40;99.90
15115;DHT22;7658;51.456;7.622;2023-04-15T09:16:22;9.40;99.90
15115;DHT22;7658;51.456;7.622;2023-04-15T09:18:48;9.30;99.90
15115;DHT22;7658;51.456;7.622;2023-04-15T09:21:16;9.30;99.90
15115;DHT22;7658;51.456;7.622;2023-04-15T09:23:59;9.30;99.90
15115;DHT22;7658;51.456;7.622;2023-04-15T09:26:36;9.40;99.90
15115;DHT22;7658;51.456;7.622;2023-04-15T09:29:09;9.40;99.90
15115;DHT22;7658;51.456;7.622;2023-04-15T09:31:38;9.40;99.90
15115;DHT22;7658;51.456;7.622;2023-04-15T09:34:04;9.30;99.90
15115;DHT22;7658;51.456;7.622;2023-04-15T09:36:55;9.20;99.90
15115;DHT22;7658;51.456;7.622;2023-04-15T09:39:21;9.10;99.90
15115;DHT22;7658;51.456;7.622;2023-04-15T09:42:03;9.10;99.90
15115;DHT22;7658;51.456;7.622;2023-04-15T09:44:29;9.00;99.90
15115;DHT22;7658;51.456;7.622;2023-04-15T09:46:55;9.00;99.90
15115;DHT22;7658;51.456;7.622;2023-04-15T09:49:21;9.00;99.90
15115;DHT22;7658;51.456;7.622;2023-04-15T09:51:47;9.00;99.90
15115;DHT22;7658;51.456;7.622;2023-04-15T09:54:18;9.00;99.90
15115;DHT22;7658;51.456;7.622;2023-04-15T09:56:45;9.00;99.90
15115;DHT22;7658;51.456;7.622;2023-04-15T09:59:11;9.00;99.90
15115;DHT22;7658;51.456;7.622;2023-04-15T10:01:38;9.10;99.90
15115;DHT22;7658;51.456;7.622;2023-04-15T10:04:05;9.20;99.90
15115;DHT22;7658;51.456;7.622;2023-04-15T10:06:31;9.20;99.90
15115;DHT22;7658;51.456;7.622;2023-04-15T10:08:58;9.20;99.90
15115;DHT22;7658;51.456;7.622;2023-04-15T10:11:27;9.30;99.90
15115;DHT22;7658;51.456;7.622;2023-04-15T10:13:55;9.30;99.90
15115;DHT22;7658;51.456;7.622;2023-04-15T10:16:22;9.30;99.90
15115;DHT22;7658;51.456;7.622;2023-04-15T10:18:54;9.40;99.90
15115;DHT22;7658;51.456;7.622;2023-04-15T10:21:21;9.30;99.90
15115;DHT22;7658;51.456;7.622;2023-04-15T10:23:48;9.30;99.90
15115;DHT22;7658;51.456;7.622;2023-04-15T10:26:15;9.20;99.90
15115;DHT22;7658;51.456;7.622;2023-04-15T10:28:42;9.20;99.90
15115;DHT22;7658;51.456;7.622;2023-04-15T10:31:11;9.20;99.90
15115;DHT22;7658;51.456;7.622;2023-04-15T10:33:38;9.30;99.90
15115;DHT22;7658;51.456;7.622;2023-04-15T10:36:05;9.30;99.90
15115;DHT22;7658;51.456;7.622;2023-04-15T10:38:40;9.20;99.90
15115;DHT22;7658;51.456;7.622;2023-04-15T10:41:26;9.20;99.90
15115;DHT22;7658;51.456;7.622;2023-04-15T10:44:02;9.20;99.90
15115;DHT22;7658;51.456;7.622;2023-04-15T10:46:42;9.10;99.90
15115;DHT22;7658;51.456;7.622;2023-04-15T10:49:12;9.10;99.90
15115;DHT22;7658;51.456;7.622;2023-04-15T10:51:46;9.10;99.90
15115;DHT22;7658;51.456;7.622;2023-04-15T10:54:16;9.00;99.90
15115;DHT22;7658;51.456;7.622;2023-04-15T10:56:46;9.00;99.90
15115;DHT22;7658;51.456;7.622;2023-04-15T10:59:15;9.10;99.90
15115;DHT22;7658;51.456;7.622;2023-04-15T11:02:02;9.00;99.90
15115;DHT22;7658;51.456;7.622;2023-04-15T11:04:50;8.90;99.90
15115;DHT22;7658;51.456;7.622;2023-04-15T11:10:01;8.90;99.90
15115;DHT22;7658;51.456;7.622;2023-04-15T11:12:36;8.80;99.90
15115;DHT22;7658;51.456;7.622;2023-04-15T11:15:34;8.70;99.90
15115;DHT22;7658;51.456;7.622;2023-04-15T11:23:26;8.60;99.90
15115;DHT22;7658;51.456;7.622;2023-04-15T11:25:54;8.70;99.90
15115;DHT22;7658;51.456;7.622;2023-04-15T11:28:28;8.70;99.90
15115;DHT22;7658;51.456;7.622;2023-04-15T11:30:54;8.70;99.90
15115;DHT22;7658;51.456;7.622;2023-04-15T11:33:21;8.60;99.90
15115;DHT22;7658;51.456;7.622;2023-04-15T11:35:47;8.60;99.90
15115;DHT22;7658;51.456;7.622;2023-04-15T11:38:14;8.60;99.90
15115;DHT22;7658;51.456;7.622;2023-04-15T11:40:40;8.60;99.90
15115;DHT22;7658;51.456;7.622;2023-04-15T11:43:16;8.60;99.90
15115;DHT22;7658;51.456;7.622;2023-04-15T11:45:56;8.60;99.90
15115;DHT22;7658;51.456;7.622;2023-04-15T11:48:27;8.60;99.90
15115;DHT22;7658;51.456;7.622;2023-04-15T11:51:04;8.60;99.90
15115;DHT22;7658;51.456;7.622;2023-04-15T11:53:45;8.60;99.90
15115;DHT22;7658;51.456;7.622;2023-04-15T11:56:25;8.60;99.90
15115;DHT22;7658;51.456;7.622;2023-04-15T11:58:58;8.60;99.90
15115;DHT22;7658;51.456;7.622;2023-04-15T12:01:35;8.70;99.90
15115;DHT22;7658;51.456;7.622;2023-04-15T12:04:02;8.80;99.90
15115;DHT22;7658;51.456;7.622;2023-04-15T12:06:35;8.80;99.90
15115;DHT22;7658;51.456;7.622;2023-04-15T12:09:07;8.80;99.90
15115;DHT22;7658;51.456;7.622;2023-04-15T12:11:49;8.80;99.90
15115;DHT22;7658;51.456;7.622;2023-04-15T12:14:24;8.80;99.90
15115;DHT22;7658;51.456;7.622;2023-04-15T12:16:52;8.80;99.90
15115;DHT22;7658;51.456;7.622;2023-04-15T12:19:34;8.80;99.90
15115;DHT22;7658;51.456;7.622;2023-04-15T12:22:11;8.70;99.90
15115;DHT22;7658;51.456;7.622;2023-04-15T12:24:38;8.70;99.90
15115;DHT22;7658;51.456;7.622;2023-04-15T12:27:09;8.70;99.90
15115;DHT22;7658;51.456;7.622;2023-04-15T12:29:36;8.70;99.90
15115;DHT22;7658;51.456;7.622;2023-04-15T12:34:40;8.70;99.90
15115;DHT22;7658;51.456;7.622;2023-04-15T12:37:09;8.70;99.90
15115;DHT22;7658;51.456;7.622;2023-04-15T12:39:37;8.70;99.90
15115;DHT22;7658;51.456;7.622;2023-04-15T12:42:04;8.70;99.90
15115;DHT22;7658;51.456;7.622;2023-04-15T12:44:31;8.70;99.90
15115;DHT22;7658;51.456;7.622;2023-04-15T12:46:57;8.60;99.90
15115;DHT22;7658;51.456;7.622;2023-04-15T12:49:25;8.60;99.90
15115;DHT22;7658;51.456;7.622;2023-04-15T12:51:53;8.60;99.90
15115;DHT22;7658;51.456;7.622;2023-04-15T12:54:19;8.60;99.90
15115;DHT22;7658;51.456;7.622;2023-04-15T12:56:46;8.70;99.90
15115;DHT22;7658;51.456;7.622;2023-04-15T12:59:13;8.60;99.90
15115;DHT22;7658;51.456;7.622;2023-04-15T13:01:39;8.60;99.90
15115;DHT22;7658;51.456;7.622;2023-04-15T13:04:06;8.60;99.90
15115;DHT22;7658;51.456;7.622;2023-04-15T13:06:32;8.60;99.90
15115;DHT22;7658;51.456;7.622;2023-04-15T13:09:01;8.60;99.90
15115;DHT22;7658;51.456;7.622;2023-04-15T13:11:27;8.60;99.90
15115;DHT22;7658;51.456;7.622;2023-04-15T13:13:56;8.60;99.90
15115;DHT22;7658;51.456;7.622;2023-04-15T13:16:23;8.70;99.90
15115;DHT22;7658;51.456;7.622;2023-04-15T13:18:49;8.60;99.90
15115;DHT22;7658;51.456;7.622;2023-04-15T13:21:15;8.70;99.90
15115;DHT22;7658;51.456;7.622;2023-04-15T13:23:41;8.60;99.90
15115;DHT22;7658;51.456;7.622;2023-04-15T13:26:07;8.60;99.90
15115;DHT22;7658;51.456;7.622;2023-04-15T13:28:33;8.60;99.90
15115;DHT22;7658;51.456;7.622;2023-04-15T13:30:59;8.60;99.90
15115;DHT22;7658;51.456;7.622;2023-04-15T13:33:25;8.60;99.90
15115;DHT22;7658;51.456;7.622;2023-04-15T13:35:51;8.50;99.90
15115;DHT22;7658;51.456;7.622;2023-04-15T13:38:18;8.60;99.90
15115;DHT22;7658;51.456;7.622;2023-04-15T13:40:44;8.60;99.90
15115;DHT22;7658;51.456;7.622;2023-04-15T13:43:09;8.60;99.90
15115;DHT22;7658;51.456;7.622;2023-04-15T13:45:36;8.60;99.90
15115;DHT22;7658;51.456;7.622;2023-04-15T13:48:01;8.60;99.90
15115;DHT22;7658;51.456;7.622;2023-04-15T13:50:27;8.50;99.90
15115;DHT22;7658;51.456;7.622;2023-04-15T13:52:53;8.50;99.90
15115;DHT22;7658;51.456;7.622;2023-04-15T13:55:19;8.50;99.90
15115;DHT22;7658;51.456;7.622;2023-04-15T13:57:45;8.50;99.90
15115;DHT22;7658;51.456;7.622;2023-04-15T14:00:11;8.50;99.90
15115;DHT22;7658;51.456;7.622;2023-04-15T14:02:37;8.40;99.90
15115;DHT22;7658;51.456;7.622;2023-04-15T14:05:02;8.40;99.90
15115;DHT22;7658;51.456;7.622;2023-04-15T14:07:29;8.40;99.90
15115;DHT22;7658;51.456;7.622;2023-04-15T14:09:55;8.50;99.90
15115;DHT22;7658;51.456;7.622;2023-04-15T14:12:21;8.50;99.90
15115;DHT22;7658;51.456;7.622;2023-04-15T14:14:47;8.50;99.90
15115;DHT22;7658;51.456;7.622;2023-04-15T14:17:12;8.50;99.90
15115;DHT22;7658;51.456;7.622;2023-04-15T14:19:38;8.50;99.90
15115;DHT22;7658;51.456;7.622;2023-04-15T14:22:04;8.50;99.90
15115;DHT22;7658;51.456;7.622;2023-04-15T14:24:30;8.50;99.90
15115;DHT22;7658;51.456;7.622;2023-04-15T14:26:57;8.50;99.90
15115;DHT22;7658;51.456;7.622;2023-04-15T14:29:22;8.50;99.90
15115;DHT22;7658;51.456;7.622;2023-04-15T14:31:48;8.50;99.90
15115;DHT22;7658;51.456;7.622;2023-04-15T14:34:15;8.40;99.90
15115;DHT22;7658;51.456;7.622;2023-04-15T14:36:41;8.40;99.90
15115;DHT22;7658;51.456;7.622;2023-04-15T14:39:07;8.40;99.90
15115;DHT22;7658;51.456;7.622;2023-04-15T14:41:34;8.40;99.90
15115;DHT22;7658;51.456;7.622;2023-04-15T14:44:00;8.40;99.90
15115;DHT22;7658;51.456;7.622;2023-04-15T14:46:25;8.40;99.90
15115;DHT22;7658;51.456;7.622;2023-04-15T14:48:51;8.40;99.90
15115;DHT22;7658;51.456;7.622;2023-04-15T14:51:17;8.40;99.90
15115;DHT22;7658;51.456;7.622;2023-04-15T14:53:44;8.40;99.90
15115;DHT22;7658;51.456;7.622;2023-04-15T14:56:10;8.40;99.90
15115;DHT22;7658;51.456;7.622;2023-04-15T14:58:36;8.40;99.90
15115;DHT22;7658;51.456;7.622;2023-04-15T15:01:02;8.40;99.90
15115;DHT22;7658;51.456;7.622;2023-04-15T15:03:29;8.40;99.90
15115;DHT22;7658;51.456;7.622;2023-04-15T15:05:55;8.40;99.90
15115;DHT22;7658;51.456;7.622;2023-04-15T15:08:22;8.40;99.90
15115;DHT22;7658;51.456;7.622;2023-04-15T15:10:48;8.40;99.90
15115;DHT22;7658;51.456;7.622;2023-04-15T15:13:14;8.40;99.90
15115;DHT22;7658;51.456;7.622;2023-04-15T15:15:40;8.40;99.90
15115;DHT22;7658;51.456;7.622;2023-04-15T15:18:06;8.40;99.90
15115;DHT22;7658;51.456;7.622;2023-04-15T15:20:31;8.30;99.90
15115;DHT22;7658;51.456;7.622;2023-04-15T15:22:59;8.30;99.90
15115;DHT22;7658;51.456;7.622;2023-04-15T15:25:25;8.30;99.90
15115;DHT22;7658;51.456;7.622;2023-04-15T15:27:51;8.30;99.90
15115;DHT22;7658;51.456;7.622;2023-04-15T15:30:17;8.20;99.90
15115;DHT22;7658;51.456;7.622;2023-04-15T15:32:43;8.20;99.90
15115;DHT22;7658;51.456;7.622;2023-04-15T15:35:09;8.20;99.90
15115;DHT22;7658;51.456;7.622;2023-04-15T15:37:36;8.20;99.90
15115;DHT22;7658;51.456;7.622;2023-04-15T15:40:05;8.20;99.90
15115;DHT22;7658;51.456;7.622;2023-04-15T15:42:32;8.10;99.90
15115;DHT22;7658;51.456;7.622;2023-04-15T15:44:58;8.00;99.90
15115;DHT22;7658;51.456;7.622;2023-04-15T15:47:24;8.00;99.90
15115;DHT22;7658;51.456;7.622;2023-04-15T15:49:51;8.00;99.90
15115;DHT22;7658;51.456;7.622;2023-04-15T15:52:17;8.00;99.90
15115;DHT22;7658;51.456;7.622;2023-04-15T15:54:43;8.00;99.90
15115;DHT22;7658;51.456;7.622;2023-04-15T15:57:09;7.90;99.90
15115;DHT22;7658;51.456;7.622;2023-04-15T15:59:35;7.90;99.90
15115;DHT22;7658;51.456;7.622;2023-04-15T16:02:11;7.90;99.90
15115;DHT22;7658;51.456;7.622;2023-04-15T16:04:38;7.90;99.90
15115;DHT22;7658;51.456;7.622;2023-04-15T16:07:04;7.90;99.90
15115;DHT22;7658;51.456;7.622;2023-04-15T16:09:31;7.90;99.90
15115;DHT22;7658;51.456;7.622;2023-04-15T16:11:57;7.90;99.90
15115;DHT22;7658;51.456;7.622;2023-04-15T16:14:24;7.90;99.90